createdAt,value
2023-04-09T00:01:44.437Z,20.10
2023-04-09T00:04:12.637Z,20.33
2023-04-09T00:06:43.028Z,20.57
2023-04-09T00:09:11.184Z,21.80
2023-04-09T00:11:41.643Z,20.47
2023-04-09T00:14:09.815Z,19.83
2023-04-09T00:16:41.810Z,18.70
2023-04-09T00:19:10.009Z,20.07
2023-04-09T00:21:38.129Z,19.03
2023-04-09T00:24:06.998Z,18.57
2023-04-09T00:26:37.156Z,18.17
2023-04-09T00:29:05.457Z,19.00
2023-04-09T00:31:33.958Z,19.00
2023-04-09T00:34:06.158Z,18.37
2023-04-09T00:36:34.232Z,17.57
2023-04-09T00:39:02.390Z,18.73
2023-04-09T00:41:30.598Z,17.17
2023-04-09T00:43:58.781Z,17.17
2023-04-09T00:46:27.031Z,17.20
2023-04-09T00:48:57.576Z,18.00
2023-04-09T00:51:28.652Z,16.57
2023-04-09T00:53:59.588Z,17.23
2023-04-09T00:56:28.223Z,16.93
2023-04-09T00:58:56.731Z,15.77
2023-04-09T01:01:24.909Z,16.97
2023-04-09T01:03:56.107Z,16.73
2023-04-09T01:06:33.922Z,16.30
2023-04-09T01:09:09.573Z,16.00
2023-04-09T01:11:44.582Z,15.37
2023-04-09T01:14:23.404Z,16.10
2023-04-09T01:16:58.533Z,15.27
2023-04-09T01:19:40.616Z,16.47
2023-04-09T01:22:24.392Z,14.87
2023-04-09T01:25:04.640Z,15.13
2023-04-09T01:27:49.684Z,14.80
2023-04-09T01:30:22.853Z,15.20
2023-04-09T01:32:54.513Z,14.83
2023-04-09T01:35:23.242Z,14.83
2023-04-09T01:37:52.249Z,14.67
2023-04-09T01:40:20.498Z,14.80
2023-04-09T01:42:49.835Z,14.50
2023-04-09T01:45:18.624Z,15.37
2023-04-09T01:47:49.241Z,14.90
2023-04-09T01:50:17.487Z,14.80
2023-04-09T01:52:48.702Z,15.00
2023-04-09T01:55:16.828Z,15.77
2023-04-09T01:57:47.479Z,14.87
2023-04-09T02:00:17.036Z,14.73
2023-04-09T02:02:52.156Z,15.20
2023-04-09T02:05:27.140Z,14.47
2023-04-09T02:07:58.122Z,14.83
2023-04-09T02:10:28.364Z,15.20
2023-04-09T02:13:01.410Z,15.60
2023-04-09T02:15:35.528Z,15.33
2023-04-09T02:18:05.378Z,14.77
2023-04-09T02:20:33.541Z,14.93
2023-04-09T02:23:01.698Z,15.03
2023-04-09T02:25:33.105Z,15.50
2023-04-09T02:28:01.241Z,16.70
2023-04-09T02:30:31.341Z,15.30
2023-04-09T02:33:01.873Z,16.27
2023-04-09T02:35:31.508Z,15.50
2023-04-09T02:37:59.634Z,16.63
2023-04-09T02:40:27.904Z,15.43
2023-04-09T02:42:56.582Z,15.93
2023-04-09T02:45:26.941Z,15.47
2023-04-09T02:47:55.522Z,14.53
2023-04-09T02:50:23.854Z,15.70
2023-04-09T02:52:55.408Z,15.93
2023-04-09T02:55:23.874Z,16.20
2023-04-09T02:57:52.024Z,15.67
2023-04-09T03:00:20.203Z,15.83
2023-04-09T03:02:48.651Z,16.47
2023-04-09T03:05:16.797Z,15.20
2023-04-09T03:07:47.382Z,15.97
2023-04-09T03:10:17.034Z,16.63
2023-04-09T03:12:47.972Z,16.90
2023-04-09T03:15:16.307Z,14.73
2023-04-09T03:17:44.855Z,15.90
2023-04-09T03:20:12.979Z,16.07
2023-04-09T03:22:43.184Z,14.53
2023-04-09T03:25:32.396Z,17.37
2023-04-09T03:28:08.359Z,15.73
2023-04-09T03:30:42.482Z,16.33
2023-04-09T03:33:10.808Z,15.97
2023-04-09T03:35:49.119Z,15.80
2023-04-09T03:38:23.663Z,16.60
2023-04-09T03:40:53.240Z,15.50
2023-04-09T03:43:21.630Z,15.03
2023-04-09T03:45:53.330Z,17.03
2023-04-09T03:48:27.077Z,14.90
2023-04-09T03:50:56.666Z,15.07
2023-04-09T03:53:32.431Z,16.50
2023-04-09T03:56:06.610Z,18.20
2023-04-09T03:58:36.127Z,17.13
2023-04-09T04:01:04.491Z,16.53
2023-04-09T04:03:43.807Z,15.80
2023-04-09T04:06:22.935Z,17.00
2023-04-09T04:08:58.586Z,15.67
2023-04-09T04:11:37.019Z,16.20
2023-04-09T04:14:08.144Z,16.67
2023-04-09T04:16:36.506Z,17.40
2023-04-09T04:19:06.912Z,16.53
2023-04-09T04:21:42.557Z,16.77
2023-04-09T04:24:10.718Z,16.33
2023-04-09T04:26:41.032Z,16.17
2023-04-09T04:29:10.333Z,17.10
2023-04-09T04:31:55.391Z,15.50
2023-04-09T04:34:27.109Z,15.43
2023-04-09T04:37:03.536Z,16.07
2023-04-09T04:39:34.082Z,17.10
2023-04-09T04:42:07.797Z,16.53
2023-04-09T04:44:36.386Z,16.53
2023-04-09T04:47:13.122Z,17.50
2023-04-09T04:49:41.707Z,16.03
2023-04-09T04:52:12.470Z,15.73
2023-04-09T04:54:45.400Z,16.73
2023-04-09T04:57:20.262Z,16.27
2023-04-09T04:59:48.818Z,16.77
2023-04-09T05:02:18.803Z,15.60
2023-04-09T05:05:06.664Z,16.37
2023-04-09T05:07:40.658Z,17.07
2023-04-09T05:10:10.287Z,16.30
2023-04-09T05:12:43.256Z,14.67
2023-04-09T05:15:15.716Z,15.47
2023-04-09T05:17:44.570Z,15.23
2023-04-09T05:20:14.261Z,15.70
2023-04-09T05:22:52.552Z,16.53
2023-04-09T05:25:27.261Z,15.27
2023-04-09T05:27:59.229Z,16.50
2023-04-09T05:30:30.468Z,16.77
2023-04-09T05:33:01.837Z,16.30
2023-04-09T05:35:33.674Z,16.17
2023-04-09T05:38:01.950Z,16.17
2023-04-09T05:40:30.439Z,15.27
2023-04-09T05:43:02.758Z,16.37
2023-04-09T05:45:39.677Z,16.43
2023-04-09T05:48:11.119Z,15.60
2023-04-09T05:50:54.042Z,16.33
2023-04-09T05:53:26.397Z,15.43
2023-04-09T05:55:57.908Z,16.13
2023-04-09T05:58:31.272Z,16.73
2023-04-09T06:00:59.842Z,15.53
2023-04-09T06:03:28.852Z,16.17
2023-04-09T06:05:57.288Z,16.33
2023-04-09T06:08:25.466Z,15.53
2023-04-09T06:10:53.586Z,16.37
2023-04-09T06:13:21.754Z,18.67
2023-04-09T06:15:53.738Z,18.87
2023-04-09T06:18:23.184Z,19.80
2023-04-09T06:21:02.842Z,21.13
2023-04-09T06:23:31.012Z,22.80
2023-04-09T06:25:59.127Z,23.30
2023-04-09T06:28:27.409Z,23.70
2023-04-09T06:30:56.938Z,24.03
2023-04-09T06:33:27.809Z,25.20
2023-04-09T06:35:58.968Z,23.70
2023-04-09T06:38:27.159Z,24.40
2023-04-09T06:40:57.946Z,24.33
2023-04-09T06:43:28.554Z,23.43
2023-04-09T06:46:01.164Z,25.43
2023-04-09T06:48:29.268Z,25.13
2023-04-09T06:50:59.816Z,23.53
2023-04-09T06:53:28.148Z,25.27
2023-04-09T06:55:57.195Z,26.00
2023-04-09T06:58:25.503Z,24.63
2023-04-09T07:00:56.025Z,26.23
2023-04-09T07:03:27.928Z,24.50
2023-04-09T07:05:56.584Z,26.97
2023-04-09T07:08:27.028Z,25.23
2023-04-09T07:10:55.151Z,26.13
2023-04-09T07:13:23.469Z,24.57
2023-04-09T07:15:53.850Z,24.10
2023-04-09T07:18:26.090Z,26.23
2023-04-09T07:20:55.238Z,27.53
2023-04-09T07:23:25.998Z,25.70
2023-04-09T07:25:54.152Z,26.13
2023-04-09T07:28:22.339Z,25.47
2023-04-09T07:30:53.392Z,24.70
2023-04-09T07:33:21.551Z,24.40
2023-04-09T07:35:51.214Z,26.80
2023-04-09T07:38:19.391Z,24.17
2023-04-09T07:40:49.758Z,23.67
2023-04-09T07:43:18.400Z,25.13
2023-04-09T07:45:49.654Z,24.47
2023-04-09T07:48:20.106Z,24.80
2023-04-09T07:50:48.221Z,24.67
2023-04-09T07:53:17.705Z,23.90
2023-04-09T07:55:46.596Z,22.63
2023-04-09T07:58:14.762Z,21.47
2023-04-09T08:00:42.939Z,22.10
2023-04-09T08:03:12.015Z,24.67
2023-04-09T08:05:40.327Z,23.27
2023-04-09T08:08:08.494Z,23.23
2023-04-09T08:10:37.981Z,23.00
2023-04-09T08:13:10.147Z,22.97
2023-04-09T08:15:39.621Z,23.00
2023-04-09T08:18:10.150Z,20.47
2023-04-09T08:20:44.733Z,19.20
2023-04-09T08:23:12.909Z,19.13
2023-04-09T08:25:44.663Z,18.90
2023-04-09T08:28:12.766Z,18.93
2023-04-09T08:30:40.852Z,17.83
2023-04-09T08:33:08.987Z,18.63
2023-04-09T08:35:38.293Z,17.73
2023-04-09T08:38:06.401Z,17.83
2023-04-09T08:40:35.864Z,17.50
2023-04-09T08:43:06.841Z,18.53
2023-04-09T08:45:37.144Z,17.20
2023-04-09T08:48:10.487Z,17.10
2023-04-09T08:50:41.405Z,16.13
2023-04-09T08:53:13.323Z,15.23
2023-04-09T08:55:41.424Z,15.07
2023-04-09T08:58:11.459Z,14.77
2023-04-09T09:00:40.727Z,15.07
2023-04-09T09:03:11.730Z,14.03
2023-04-09T09:05:41.817Z,14.53
2023-04-09T09:08:10.797Z,14.33
2023-04-09T09:10:40.250Z,14.60
2023-04-09T09:13:23.562Z,13.93
2023-04-09T09:15:55.119Z,14.00
2023-04-09T09:18:38.211Z,13.63
2023-04-09T09:21:12.686Z,13.93
2023-04-09T09:23:43.478Z,13.03
2023-04-09T09:26:16.244Z,12.40
2023-04-09T09:28:46.861Z,13.83
2023-04-09T09:31:19.064Z,13.80
2023-04-09T09:33:48.258Z,14.40
2023-04-09T09:36:33.191Z,13.07
2023-04-09T09:39:09.776Z,13.03
2023-04-09T09:41:38.449Z,13.80
2023-04-09T09:44:08.706Z,14.30
2023-04-09T09:46:41.466Z,13.43
2023-04-09T09:49:10.488Z,13.37
2023-04-09T09:51:41.364Z,13.00
2023-04-09T09:54:14.154Z,13.30
2023-04-09T09:56:43.977Z,12.60
2023-04-09T09:59:17.890Z,13.80
2023-04-09T10:01:50.347Z,13.30
2023-04-09T10:04:21.322Z,12.73
2023-04-09T10:06:52.097Z,12.27
2023-04-09T10:09:27.776Z,12.60
2023-04-09T10:11:57.879Z,11.97
2023-04-09T10:14:30.288Z,13.03
2023-04-09T10:16:59.119Z,12.63
2023-04-09T10:19:27.388Z,11.90
2023-04-09T10:22:02.736Z,13.43
2023-04-09T10:24:35.818Z,12.97
2023-04-09T10:27:14.224Z,13.23
2023-04-09T10:29:46.609Z,10.87
2023-04-09T10:32:22.392Z,10.80
2023-04-09T10:34:52.172Z,12.30
2023-04-09T10:37:24.351Z,11.43
2023-04-09T10:39:53.465Z,11.70
2023-04-09T10:42:25.834Z,11.03
2023-04-09T10:45:16.841Z,11.03
2023-04-09T10:47:46.406Z,11.40
2023-04-09T10:50:19.774Z,11.60
2023-04-09T10:52:54.960Z,11.57
2023-04-09T10:55:35.642Z,11.37
2023-04-09T10:58:07.966Z,11.37
2023-04-09T11:00:40.953Z,12.30
2023-04-09T11:03:22.606Z,12.33
2023-04-09T11:05:54.929Z,11.03
2023-04-09T11:08:25.278Z,11.80
2023-04-09T11:10:58.284Z,10.23
2023-04-09T11:13:30.297Z,10.77
2023-04-09T11:16:04.167Z,11.53
2023-04-09T11:18:37.091Z,10.63
2023-04-09T11:21:05.869Z,11.47
2023-04-09T11:23:36.123Z,12.30
2023-04-09T11:26:05.326Z,11.40
2023-04-09T11:28:35.621Z,12.07
2023-04-09T11:31:08.100Z,11.97
2023-04-09T11:33:36.379Z,11.13
2023-04-09T11:36:06.863Z,11.10
2023-04-09T11:38:35.248Z,11.93
2023-04-09T11:41:03.523Z,11.60
2023-04-09T11:43:31.824Z,10.93
2023-04-09T11:46:00.776Z,12.00
2023-04-09T11:48:32.781Z,11.73
2023-04-09T11:51:03.985Z,11.83
2023-04-09T11:53:32.647Z,11.30
2023-04-09T11:56:01.636Z,13.07
2023-04-09T11:58:30.259Z,12.80
2023-04-09T12:01:00.431Z,10.37
2023-04-09T12:03:33.939Z,10.83
2023-04-09T12:06:06.257Z,10.50
2023-04-09T12:08:36.306Z,10.87
2023-04-09T12:11:11.540Z,10.23
2023-04-09T12:13:43.253Z,11.43
2023-04-09T12:16:11.881Z,10.63
2023-04-09T12:18:41.775Z,11.33
2023-04-09T12:21:09.960Z,11.20
2023-04-09T12:23:38.188Z,10.27
2023-04-09T12:26:08.656Z,10.83
2023-04-09T12:28:39.162Z,11.53
2023-04-09T12:31:10.963Z,10.47
2023-04-09T12:33:40.414Z,11.50
2023-04-09T12:36:10.161Z,11.40
2023-04-09T12:38:40.480Z,10.20
2023-04-09T12:41:11.673Z,10.83
2023-04-09T12:43:43.803Z,12.33
2023-04-09T12:46:12.183Z,10.47
2023-04-09T12:48:40.306Z,10.60
2023-04-09T12:51:11.292Z,9.80
2023-04-09T12:53:39.485Z,11.13
2023-04-09T12:56:08.470Z,9.47
2023-04-09T12:58:37.761Z,9.80
2023-04-09T13:01:06.680Z,10.63
2023-04-09T13:03:35.149Z,10.10
2023-04-09T13:06:03.443Z,10.23
2023-04-09T13:08:32.940Z,9.27
2023-04-09T13:11:01.232Z,9.47
2023-04-09T13:13:31.628Z,9.17
2023-04-09T13:15:59.679Z,9.00
2023-04-09T13:18:27.754Z,8.80
2023-04-09T13:20:56.112Z,8.20
2023-04-09T13:23:26.314Z,7.90
2023-04-09T13:25:55.976Z,8.30
2023-04-09T13:28:24.152Z,8.43
2023-04-09T13:30:54.430Z,8.00
2023-04-09T13:33:25.090Z,8.87
2023-04-09T13:35:55.515Z,7.50
2023-04-09T13:38:23.783Z,7.87
2023-04-09T13:40:51.942Z,7.43
2023-04-09T13:43:27.908Z,7.33
2023-04-09T13:45:57.348Z,8.03
2023-04-09T13:48:27.943Z,7.23
2023-04-09T13:50:58.460Z,7.43
2023-04-09T13:53:26.648Z,7.13
2023-04-09T13:55:54.781Z,7.40
2023-04-09T13:58:24.280Z,7.17
2023-04-09T14:00:52.783Z,7.10
2023-04-09T14:03:22.985Z,8.73
2023-04-09T14:05:51.111Z,8.20
2023-04-09T14:08:21.404Z,8.73
2023-04-09T14:10:49.527Z,9.83
2023-04-09T14:13:17.630Z,9.37
2023-04-09T14:15:47.169Z,9.47
2023-04-09T14:18:15.405Z,8.03
2023-04-09T14:20:43.634Z,7.53
2023-04-09T14:23:11.732Z,8.27
2023-04-09T14:25:39.839Z,8.20
2023-04-09T14:28:07.996Z,8.37
2023-04-09T14:30:36.098Z,8.57
2023-04-09T14:33:06.656Z,10.03
2023-04-09T14:35:36.951Z,7.13
2023-04-09T14:38:05.088Z,7.67
2023-04-09T14:40:33.458Z,7.23
2023-04-09T14:43:01.559Z,7.20
2023-04-09T14:45:32.240Z,7.10
2023-04-09T14:48:02.776Z,6.97
2023-04-09T14:50:33.912Z,8.30
2023-04-09T14:53:02.694Z,7.73
2023-04-09T14:55:33.033Z,7.37
2023-04-09T14:58:04.520Z,6.70
2023-04-09T15:00:33.914Z,7.50
2023-04-09T15:03:02.366Z,7.60
2023-04-09T15:05:32.109Z,10.90
2023-04-09T15:08:02.271Z,8.50
2023-04-09T15:10:30.392Z,8.37
2023-04-09T15:12:58.462Z,7.63
2023-04-09T15:15:26.822Z,8.17
2023-04-09T15:17:54.980Z,9.37
2023-04-09T15:20:23.372Z,7.43
2023-04-09T15:22:52.859Z,8.80
2023-04-09T15:25:21.293Z,8.53
2023-04-09T15:27:49.359Z,7.90
2023-04-09T15:30:17.474Z,7.63
2023-04-09T15:32:47.918Z,8.10
2023-04-09T15:35:23.315Z,8.63
2023-04-09T15:37:55.390Z,8.37
2023-04-09T15:40:25.517Z,7.87
2023-04-09T15:42:53.823Z,7.27
2023-04-09T15:45:22.054Z,7.60
2023-04-09T15:47:50.257Z,7.20
2023-04-09T15:50:21.306Z,7.73
2023-04-09T15:52:49.868Z,8.03
2023-04-09T15:55:19.567Z,7.70
2023-04-09T15:57:47.666Z,7.00
2023-04-09T16:00:15.949Z,7.67
2023-04-09T16:02:46.349Z,7.30
2023-04-09T16:05:14.542Z,6.83
2023-04-09T16:07:42.841Z,6.73
2023-04-09T16:10:14.682Z,6.30
2023-04-09T16:12:44.164Z,6.90
2023-04-09T16:15:14.380Z,7.10
2023-04-09T16:17:44.499Z,6.90
2023-04-09T16:20:12.958Z,7.10
2023-04-09T16:22:41.126Z,7.93
2023-04-09T16:25:11.655Z,7.30
2023-04-09T16:27:39.764Z,7.43
2023-04-09T16:30:09.870Z,7.27
2023-04-09T16:32:38.010Z,8.20
2023-04-09T16:35:06.866Z,7.60
2023-04-09T16:37:35.535Z,7.50
2023-04-09T16:40:08.162Z,6.73
2023-04-09T16:42:36.750Z,7.63
2023-04-09T16:45:09.694Z,6.87
2023-04-09T16:47:40.384Z,7.20
2023-04-09T16:50:11.455Z,9.17
2023-04-09T16:52:40.165Z,9.47
2023-04-09T16:55:09.209Z,8.20
2023-04-09T16:57:38.105Z,7.37
2023-04-09T17:00:07.576Z,7.27
2023-04-09T17:02:38.361Z,7.30
2023-04-09T17:05:07.401Z,7.47
2023-04-09T17:07:35.575Z,6.60
2023-04-09T17:10:03.692Z,7.80
2023-04-09T17:12:34.157Z,7.03
2023-04-09T17:15:02.327Z,7.27
2023-04-09T17:17:30.399Z,7.87
2023-04-09T17:20:01.554Z,7.43
2023-04-09T17:22:29.732Z,7.87
2023-04-09T17:25:00.020Z,6.57
2023-04-09T17:27:28.621Z,8.00
2023-04-09T17:29:56.824Z,7.17
2023-04-09T17:32:27.594Z,7.50
2023-04-09T17:34:55.976Z,7.30
2023-04-09T17:37:29.138Z,7.00
2023-04-09T17:39:57.347Z,7.40
2023-04-09T17:42:26.155Z,8.32
2023-04-09T17:44:54.241Z,7.60
2023-04-09T17:47:22.411Z,8.30
2023-04-09T17:49:50.672Z,7.97
2023-04-09T17:52:20.310Z,7.10
2023-04-09T17:54:50.755Z,7.03
2023-04-09T17:57:19.012Z,7.90
2023-04-09T17:59:47.216Z,7.80
2023-04-09T18:02:18.281Z,7.00
2023-04-09T18:04:46.693Z,7.77
2023-04-09T18:07:14.970Z,7.87
2023-04-09T18:09:43.076Z,8.37
2023-04-09T18:12:14.888Z,8.10
2023-04-09T18:14:43.422Z,7.77
2023-04-09T18:17:11.592Z,7.53
2023-04-09T18:19:42.343Z,8.60
2023-04-09T18:22:11.246Z,8.83
2023-04-09T18:24:39.454Z,9.40
2023-04-09T18:27:09.987Z,8.40
2023-04-09T18:29:41.820Z,9.37
2023-04-09T18:32:09.991Z,10.03
2023-04-09T18:34:38.284Z,9.17
2023-04-09T18:37:06.459Z,11.55
2023-04-09T18:39:37.703Z,8.97
2023-04-09T18:42:05.998Z,10.98
2023-04-09T18:44:36.322Z,9.23
2023-04-09T18:47:06.397Z,10.20
2023-04-09T18:49:34.556Z,9.67
2023-04-09T18:52:05.407Z,8.13
2023-04-09T18:54:37.249Z,9.07
2023-04-09T18:57:05.595Z,13.30
2023-04-09T18:59:34.960Z,13.80
2023-04-09T19:02:04.987Z,13.13
2023-04-09T19:04:39.766Z,14.40
2023-04-09T19:07:10.262Z,14.87
2023-04-09T19:09:41.745Z,15.03
2023-04-09T19:12:09.953Z,16.47
2023-04-09T19:14:40.537Z,16.87
2023-04-09T19:17:11.787Z,16.90
2023-04-09T19:19:41.801Z,16.50
2023-04-09T19:22:09.938Z,20.53
2023-04-09T19:24:40.639Z,16.70
2023-04-09T19:27:13.175Z,16.60
2023-04-09T19:29:41.282Z,16.17
2023-04-09T19:32:11.699Z,15.47
2023-04-09T19:34:43.737Z,16.23
2023-04-09T19:37:16.374Z,15.53
2023-04-09T19:39:46.798Z,16.63
2023-04-09T19:42:14.932Z,16.43
2023-04-09T19:44:43.047Z,15.43
2023-04-09T19:47:11.428Z,16.80
2023-04-09T19:49:39.778Z,15.73
2023-04-09T19:52:09.655Z,16.00
2023-04-09T19:54:39.921Z,15.60
2023-04-09T19:57:10.121Z,17.23
2023-04-09T19:59:40.958Z,15.63
2023-04-09T20:02:09.174Z,16.30
2023-04-09T20:04:37.329Z,17.83
2023-04-09T20:07:06.134Z,18.37
2023-04-09T20:09:36.871Z,22.53
2023-04-09T20:12:08.828Z,22.10
2023-04-09T20:14:39.187Z,24.03
2023-04-09T20:17:10.688Z,23.80
2023-04-09T20:19:42.382Z,21.97
2023-04-09T20:22:13.266Z,22.90
2023-04-09T20:24:42.979Z,24.57
2023-04-09T20:27:11.294Z,24.73
2023-04-09T20:29:39.778Z,25.27
2023-04-09T20:32:10.359Z,27.00
2023-04-09T20:34:41.137Z,26.20
2023-04-09T20:37:11.495Z,29.07
2023-04-09T20:39:43.228Z,25.80
2023-04-09T20:42:11.339Z,26.47
2023-04-09T20:44:39.528Z,26.40
2023-04-09T20:47:09.716Z,28.97
2023-04-09T20:49:37.954Z,28.87
2023-04-09T20:52:09.251Z,30.67
2023-04-09T20:54:37.609Z,30.37
2023-04-09T20:57:07.252Z,30.97
2023-04-09T20:59:35.498Z,33.20
2023-04-09T21:02:03.935Z,33.70
2023-04-09T21:04:32.373Z,36.83
2023-04-09T21:07:02.947Z,36.97
2023-04-09T21:09:31.574Z,40.93
2023-04-09T21:11:59.756Z,37.63
2023-04-09T21:14:29.337Z,40.57
2023-04-09T21:16:59.644Z,39.73
2023-04-09T21:19:27.819Z,42.23
2023-04-09T21:21:58.082Z,42.47
2023-04-09T21:24:28.843Z,43.37
2023-04-09T21:26:57.984Z,43.60
2023-04-09T21:29:30.103Z,40.83
2023-04-09T21:32:00.521Z,48.10
2023-04-09T21:34:28.864Z,45.30
2023-04-09T21:36:59.520Z,44.33
2023-04-09T21:39:30.297Z,45.47
2023-04-09T21:41:58.647Z,44.43
2023-04-09T21:44:26.834Z,45.13
2023-04-09T21:46:56.390Z,44.10
2023-04-09T21:49:27.346Z,49.10
2023-04-09T21:51:56.710Z,46.93
2023-04-09T21:54:27.426Z,45.67
2023-04-09T21:56:55.532Z,45.23
2023-04-09T21:59:23.614Z,45.93
2023-04-09T22:01:51.883Z,46.27
2023-04-09T22:04:21.652Z,52.43
2023-04-09T22:06:52.081Z,48.40
2023-04-09T22:09:20.209Z,47.97
2023-04-09T22:11:48.466Z,60.22
2023-04-09T22:14:16.639Z,52.77
2023-04-09T22:16:44.747Z,51.47
2023-04-09T22:19:14.133Z,49.43
2023-04-09T22:21:43.915Z,48.07
2023-04-09T22:24:14.082Z,50.73
2023-04-09T22:26:46.492Z,52.20
2023-04-09T22:29:16.999Z,51.37
2023-04-09T22:31:47.321Z,55.13
2023-04-09T22:34:21.172Z,52.43
2023-04-09T22:36:51.701Z,50.30
2023-04-09T22:39:19.950Z,52.80
2023-04-09T22:41:48.040Z,57.17
2023-04-09T22:44:16.187Z,52.60
2023-04-09T22:46:44.322Z,54.50
2023-04-09T22:49:14.788Z,53.53
2023-04-09T22:51:42.942Z,52.10
2023-04-09T22:54:12.501Z,54.17
2023-04-09T22:56:43.091Z,52.13
2023-04-09T22:59:11.141Z,53.90
2023-04-09T23:01:39.397Z,54.27
2023-04-09T23:04:07.541Z,54.13
2023-04-09T23:06:36.074Z,54.27
2023-04-09T23:09:04.323Z,51.83
2023-04-09T23:11:33.821Z,53.40
2023-04-09T23:14:01.922Z,52.23
2023-04-09T23:16:30.122Z,51.83
2023-04-09T23:18:58.195Z,53.17
2023-04-09T23:21:28.887Z,53.17
2023-04-09T23:23:56.992Z,51.27
2023-04-09T23:26:25.122Z,55.57
2023-04-09T23:28:55.643Z,55.60
2023-04-09T23:31:24.034Z,54.33
2023-04-09T23:33:54.817Z,54.17
2023-04-09T23:36:26.103Z,52.37
2023-04-09T23:38:56.304Z,51.47
2023-04-09T23:41:27.092Z,53.37
2023-04-09T23:43:56.582Z,54.13
2023-04-09T23:46:24.793Z,53.70
2023-04-09T23:48:52.951Z,52.07
2023-04-09T23:51:21.744Z,51.67
2023-04-09T23:53:49.890Z,50.67
2023-04-09T23:56:18.400Z,51.03
2023-04-09T23:58:46.570Z,50.50
